Mildred, Pennsylvania
Current Conditions -  °F | °C
As of 12:54 PM on Friday 31 Oct 2014 (Local Time) from KIPT Reporting Station
Overcast Overcast  
Wind Chill: 50°   Ceiling: 6000
Heat Index: 50°   Visibility: 10mi
Dew Point: 34°   Wind: 0mph
Humidity: 54%   Direction: NA
Pressure: 29.94"   Gusts: NA
Location:  41.48°N, 76.38°W
Report Text: KIPT 311654Z 00000KT 10SM OVC060 10/01 A2994 RMK AO2 SLP142 T01000011
Loading
Personal Weather Stations






























Interactive Weather Map
Tropical Storm Tracking
New forecast layout! Learn more

10-Day Weather Forecast

Advertisements
Track Severe Weather on mobile